NCAR-RAP Real-Time Weather Data

Output produced by METARs form (19 June 2019  10:40 UTC)
found at http://weather.rap.ucar.edu/surface/
 
KLGA 190951Z 08003KT 4SM BR OVC009 19/18 A2987 RMK AO2 SLP113 T01890178
KLGA 190947Z 09004KT 4SM BR OVC009 19/18 A2987 RMK AO2
KLGA 190931Z 06005KT 4SM BR BKN010 OVC100 19/18 A2986 RMK AO2 T01890178
KLGA 190851Z 08004KT 6SM BR OVC007 19/18 A2985 RMK AO2 SLP109 T01890178 56006
KLGA 190846Z 08004KT 6SM BR OVC007 19/18 A2986 RMK AO2
KLGA 190751Z 10003KT 6SM BR OVC009 18/18 A2986 RMK AO2 SLP112 T01830183
KLGA 190745Z 10004KT 6SM BR OVC009 18/18 A2986 RMK AO2
KLGA 190651Z 05004KT 1SM R04/P6000FT BR BKN004 BKN013 OVC019 18/18 A2987 RMK AO2 SFC VIS 2 SLP115 T01830178
KLGA 190644Z 04004KT 1SM R04/P6000FT BR BKN004 OVC017 18/18 A2987 RMK AO2 SFC VIS 2 T01830178
KLGA 190551Z 07003KT 1SM R04/P6000FT BR OVC002 18/18 A2988 RMK AO2 SFC VIS 1 1/2 SLP118 60001 T01830178 10194 20183 58003
KLGA 190525Z 06006KT 1SM R04/P6000FT BR BKN002 BKN006 OVC012 18/18 A2988 RMK AO2 SFC VIS 1 1/2 T01830178
KLGA 190451Z 06005KT 1SM R04/P6000FT BR OVC003 18/18 A2989 RMK AO2 SFC VIS 1 1/2 SLP120 T01830178 402390183
KLGA 190351Z 04004KT 1SM R04/P6000FT BR OVC003 19/18 A2989 RMK AO2 SFC VIS 2 SLP121 T01890183
KLGA 190251Z 04004KT 1SM R04/P6000FT BR OVC003 19/18 A2989 RMK AO2 SFC VIS 1 1/2 RAB20E43 SLP120 P0001 60001 T01890183 51010
KLGA 190151Z 05010KT 1SM R04/P6000FT BR OVC003 19/18 A2987 RMK AO2 SFC VIS 2 RAE0057 SLP116 P0000 T01890178
KLGA 190149Z 05011KT 1SM R04/P6000FT BR OVC003 19/18 A2987 RMK AO2 SFC VIS 2 RAE0057 P0000
KLGA 190051Z 05012KT 3/4SM R04/P6000FT -RA BR OVC002 19/18 A2986 RMK AO2 SFC VIS 2 RAE2355B33 SLP110 P0000 T01890178
KLGA 190047Z 04012KT 3/4SM R04/P6000FT -RA BR OVC002 19/18 A2986 RMK AO2 SFC VIS 2 RAE2355B33 P0000
KLGA 190019Z 04009KT 1SM R04/P6000FT BR OVC003 19/18 A2986 RMK AO2 SFC VIS 3 RAE2355 P0000 T01890178
KLGA 182358Z 04008KT 3SM BR OVC004 19/18 A2985 RMK AO2 SFC VIS 4 RAE55 P0000 T01940183
KLGA 182351Z 05008KT 3SM -RA BR OVC005 19/18 A2985 RMK AO2 SFC VIS 4 SLP108 P0004 60031 T01940183 10233 20194 50004
KLGA 182349Z 05008KT 3SM -RA BR OVC005 19/18 A2985 RMK AO2 SFC VIS 4 P0004
KLGA 182333Z 04009KT 3SM -RA BR OVC007 19/18 A2985 RMK AO2 SFC VIS 4 P0004 T01940183
KLGA 182251Z 05008KT 3SM -RA BR OVC008 21/19 A2985 RMK AO2 SLP107 P0012 T02060194
KLGA 182245Z 06008KT 3SM -RA BR OVC008 21/19 A2984 RMK AO2 P0012
KLGA 182239Z 06007KT 2SM -RA BR OVC007 21/19 A2984 RMK AO2 SFC VIS 4 P0012 T02110194
KLGA 182231Z 06005KT 2SM RA BR OVC009 21/19 A2984 RMK AO2 SFC VIS 3 P0011 T02110194
KLGA 182214Z 04008KT 2SM RA BR BKN007 BKN050 OVC070 21/19 A2984 RMK AO2 SFC VIS 2 1/2 P0008 T02110194
KLGA 182153Z 06005KT 2SM RA BR BKN009 OVC050 22/20 A2983 RMK AO2 SFC VIS 3 P0001 T02170200
KLGA 182151Z 06005KT 4SM RA BR BKN009 OVC050 22/20 A2984 RMK AO2 RAB17 SLP103 P0006 T02170200
KLGA 182051Z 10006KT 10SM OVC008 23/20 A2986 RMK AO2 SLP110 60009 T02280200 58010
KLGA 181951Z VRB06KT 6SM HZ BKN009 OVC015 23/20 A2987 RMK AO2 RAE41 SLP113 P0002 T02280200
KLGA 181851Z VRB05KT 6SM -RA BKN009 BKN033 OVC065 23/20 A2988 RMK AO2 LTG DSNT S AND SW SLP119 P0007 T02280200
KLGA 181847Z 14008KT 090V160 6SM -RA BKN009 BKN033 OVC100 23/20 A2988 RMK AO2 LTG DSNT S AND SW P0007
KLGA 181813Z 16008KT 3SM RA SCT009 SCT070 OVC095 23/21 A2987 RMK AO2 P0005 T02330206
KLGA 181751Z 17007KT 3SM RA BR SCT015 SCT060 OVC075 23/21 A2989 RMK AO2 SLP120 P0014 60021 T02280206 10239 20211 58014
KLGA 181651Z 18007KT 4SM -RA SCT013 BKN050 OVC100 23/20 A2991 RMK AO2 RAB13 SLP129 P0004 T02280200
KLGA 181638Z 17006KT 5SM -RA SCT016 BKN055 OVC110 24/21 A2991 RMK AO2 RAB13 CIG 038 R22 SW P0004 T02390206
KLGA 181551Z 17007KT 7SM BKN015 BKN055 OVC090 24/19 A2991 RMK AO2 SLP130 T02390194
KLGA 181544Z 17006KT 7SM BKN014 BKN055 OVC090 24/19 A2991 RMK AO2 T02390194
KLGA 181526Z 17007KT 7SM SCT012 BKN055 OVC070 24/20 A2992 RMK AO2 T02390200
KLGA 181451Z 19007KT 7SM FEW008 BKN010 OVC070 23/21 A2993 RMK AO2 RAB02E25 SLP133 P0000 60003 T02280206 56010
KLGA 181351Z 17005KT 8SM FEW008 BKN010 BKN100 OVC150 23/20 A2993 RMK AO2 SLP136 T02280200
KLGA 181332Z 18004KT 7SM SCT008 BKN014 BKN060 OVC150 23/20 A2994 RMK AO2 T02280200
KLGA 181325Z 17004KT 7SM SCT007 SCT012 BKN060 OVC150 23/20 A2994 RMK AO2 T02280200
KLGA 181251Z 15005KT 6SM BR SCT005 BKN010 OVC085 22/20 A2994 RMK AO2 RAE32 SLP140 P0003 T02170200